createdAt,value
2022-11-10T00:00:21.972Z,11.30
2022-11-10T00:02:48.487Z,11.40
2022-11-10T00:05:15.840Z,11.50
2022-11-10T00:07:42.279Z,11.50
2022-11-10T00:10:09.604Z,11.60
2022-11-10T00:12:36.029Z,11.60
2022-11-10T00:15:21.703Z,11.60
2022-11-10T00:17:49.595Z,11.70
2022-11-10T00:20:16.324Z,11.70
2022-11-10T00:22:42.895Z,11.70
2022-11-10T00:25:09.357Z,11.70
2022-11-10T00:27:35.936Z,11.70
2022-11-10T00:30:02.396Z,11.70
2022-11-10T00:32:28.883Z,11.80
2022-11-10T00:34:55.324Z,11.80
2022-11-10T00:37:21.822Z,11.80
2022-11-10T00:39:48.484Z,11.80
2022-11-10T00:42:15.206Z,11.80
2022-11-10T00:44:41.763Z,11.90
2022-11-10T00:47:08.228Z,11.90
2022-11-10T00:49:34.656Z,12.00
2022-11-10T00:52:01.106Z,12.00
2022-11-10T00:54:27.520Z,12.00
2022-11-10T00:56:54.186Z,12.00
2022-11-10T00:59:20.940Z,12.10
2022-11-10T01:01:47.439Z,12.10
2022-11-10T01:04:13.885Z,12.10
2022-11-10T01:06:40.386Z,12.00
2022-11-10T01:09:06.894Z,12.10
2022-11-10T01:11:33.379Z,12.10
2022-11-10T01:13:59.860Z,12.10
2022-11-10T01:16:29.365Z,12.20
2022-11-10T01:18:59.168Z,12.20
2022-11-10T01:21:26.741Z,12.20
2022-11-10T01:23:53.323Z,12.20
2022-11-10T01:26:19.977Z,12.20
2022-11-10T01:28:46.765Z,12.20
2022-11-10T01:31:15.480Z,12.20
2022-11-10T01:33:42.288Z,12.20
2022-11-10T01:36:10.299Z,12.20
2022-11-10T01:38:39.116Z,12.30
2022-11-10T01:41:08.006Z,12.30
2022-11-10T01:43:34.979Z,12.30
2022-11-10T01:46:05.436Z,12.30
2022-11-10T01:48:36.321Z,12.20
2022-11-10T01:51:09.307Z,12.30
2022-11-10T01:53:41.493Z,12.30
2022-11-10T01:56:09.636Z,12.40
2022-11-10T01:58:40.318Z,12.30
2022-11-10T02:01:08.461Z,12.40
2022-11-10T02:03:39.211Z,12.30
2022-11-10T02:06:06.913Z,12.30
2022-11-10T02:08:33.991Z,12.30
2022-11-10T02:11:00.451Z,12.30
2022-11-10T02:13:26.912Z,12.20
2022-11-10T02:15:53.433Z,12.30
2022-11-10T02:18:19.979Z,12.30
2022-11-10T02:20:46.633Z,12.20
2022-11-10T02:23:31.452Z,12.30
2022-11-10T02:25:58.100Z,12.30
2022-11-10T02:28:25.611Z,12.20
2022-11-10T02:30:52.024Z,12.20
2022-11-10T02:33:18.740Z,12.20
2022-11-10T02:35:46.619Z,12.20
2022-11-10T02:38:14.301Z,12.20
2022-11-10T02:40:41.105Z,12.20
2022-11-10T02:43:12.293Z,12.20
2022-11-10T02:45:42.222Z,12.20
2022-11-10T02:48:09.017Z,12.20
2022-11-10T02:50:35.588Z,12.20
2022-11-10T02:53:02.112Z,12.20
2022-11-10T02:55:28.564Z,12.20
2022-11-10T02:57:56.582Z,12.20
2022-11-10T03:00:23.144Z,12.10
2022-11-10T03:02:49.644Z,12.20
2022-11-10T03:05:16.273Z,12.10
2022-11-10T03:07:42.729Z,12.20
2022-11-10T03:10:09.521Z,12.20
2022-11-10T03:12:35.981Z,12.20
2022-11-10T03:15:02.740Z,12.10
2022-11-10T03:17:29.204Z,12.20
2022-11-10T03:19:55.612Z,12.20
2022-11-10T03:22:22.285Z,12.20
2022-11-10T03:24:48.901Z,12.10
2022-11-10T03:27:18.704Z,12.10
2022-11-10T03:29:45.121Z,12.20
2022-11-10T03:32:11.550Z,12.10
2022-11-10T03:34:37.967Z,12.10
2022-11-10T03:37:04.783Z,12.10
2022-11-10T03:39:31.265Z,12.00
2022-11-10T03:41:57.758Z,12.00
2022-11-10T03:44:24.504Z,12.00
2022-11-10T03:46:51.805Z,11.90
2022-11-10T03:49:18.411Z,11.90
2022-11-10T03:51:44.810Z,11.90
2022-11-10T03:54:11.312Z,11.80
2022-11-10T03:56:37.852Z,11.70
2022-11-10T03:59:04.399Z,11.60
2022-11-10T04:01:30.844Z,11.60
2022-11-10T04:03:58.142Z,11.60
2022-11-10T04:06:43.707Z,11.60
2022-11-10T04:09:10.176Z,11.50
2022-11-10T04:11:55.268Z,11.40
2022-11-10T04:14:40.038Z,11.40
2022-11-10T04:17:06.528Z,11.30
2022-11-10T04:19:33.148Z,11.20
2022-11-10T04:21:59.584Z,11.10
2022-11-10T04:24:26.745Z,11.10
2022-11-10T04:26:53.175Z,11.10
2022-11-10T04:29:20.122Z,11.10
2022-11-10T04:31:46.706Z,11.00
2022-11-10T04:34:14.943Z,11.00
2022-11-10T04:36:43.495Z,11.00
2022-11-10T04:39:10.709Z,10.90
2022-11-10T04:41:37.646Z,10.90
2022-11-10T04:44:04.157Z,10.80
2022-11-10T04:46:34.402Z,10.80
2022-11-10T04:49:01.443Z,10.80
2022-11-10T04:51:32.907Z,10.80
2022-11-10T04:53:59.597Z,10.70
2022-11-10T04:56:27.181Z,10.60
2022-11-10T04:58:54.770Z,10.60
2022-11-10T05:01:27.137Z,10.60
2022-11-10T05:03:54.666Z,10.50
2022-11-10T05:06:21.722Z,10.40
2022-11-10T05:08:48.176Z,10.50
2022-11-10T05:11:15.027Z,10.50
2022-11-10T05:13:42.313Z,10.40
2022-11-10T05:16:09.083Z,10.40
2022-11-10T05:18:35.770Z,10.20
2022-11-10T05:21:02.342Z,10.20
2022-11-10T05:23:37.995Z,10.20
2022-11-10T05:26:06.292Z,10.10
2022-11-10T05:28:33.200Z,10.20
2022-11-10T05:30:59.634Z,10.10
2022-11-10T05:33:26.313Z,10.10
2022-11-10T05:35:53.035Z,10.10
2022-11-10T05:38:19.476Z,10.00
2022-11-10T05:40:46.168Z,10.00
2022-11-10T05:43:12.632Z,10.00
2022-11-10T05:45:39.164Z,9.90
2022-11-10T05:48:05.654Z,9.90
2022-11-10T05:50:32.095Z,10.00
2022-11-10T05:52:58.652Z,9.90
2022-11-10T05:55:27.976Z,9.90
2022-11-10T05:57:55.699Z,9.70
2022-11-10T06:00:25.233Z,9.80
2022-11-10T06:03:05.820Z,9.80
2022-11-10T06:05:34.721Z,9.70
2022-11-10T06:08:02.296Z,9.80
2022-11-10T06:10:28.775Z,9.70
2022-11-10T06:12:55.607Z,9.80
2022-11-10T06:15:22.280Z,9.60
2022-11-10T06:17:49.096Z,9.70
2022-11-10T06:20:17.554Z,9.60
2022-11-10T06:22:44.795Z,9.60
2022-11-10T06:25:11.677Z,9.60
2022-11-10T06:27:38.281Z,9.60
2022-11-10T06:30:05.188Z,9.50
2022-11-10T06:32:33.705Z,9.50
2022-11-10T06:35:00.818Z,9.50
2022-11-10T06:37:27.826Z,9.50
2022-11-10T06:39:54.269Z,9.60
2022-11-10T06:42:20.710Z,9.60
2022-11-10T06:44:47.120Z,9.60
2022-11-10T06:47:13.622Z,9.50
2022-11-10T06:49:40.060Z,9.60
2022-11-10T06:52:06.669Z,9.50
2022-11-10T06:54:33.085Z,9.60
2022-11-10T06:56:59.568Z,9.80
2022-11-10T06:59:26.021Z,9.90
2022-11-10T07:01:52.514Z,10.10
2022-11-10T07:04:20.964Z,10.20
2022-11-10T07:06:47.949Z,10.40
2022-11-10T07:09:15.686Z,10.30
2022-11-10T07:11:42.279Z,10.40
2022-11-10T07:14:08.782Z,10.40
2022-11-10T07:16:35.430Z,10.50
2022-11-10T07:19:01.842Z,10.60
2022-11-10T07:21:29.033Z,10.80
2022-11-10T07:23:55.466Z,10.80
2022-11-10T07:26:22.024Z,10.80
2022-11-10T07:28:48.415Z,10.90
2022-11-10T07:31:14.855Z,10.90
2022-11-10T07:33:41.349Z,11.10
2022-11-10T07:36:07.933Z,11.50
2022-11-10T07:38:34.600Z,12.20
2022-11-10T07:41:01.005Z,12.70
2022-11-10T07:43:27.516Z,14.20
2022-11-10T07:45:53.938Z,14.50
2022-11-10T07:48:20.524Z,16.30
2022-11-10T07:50:46.981Z,17.80
2022-11-10T07:53:16.317Z,17.60
2022-11-10T07:55:44.499Z,18.20
2022-11-10T07:58:13.756Z,15.90
2022-11-10T08:00:40.753Z,14.90
2022-11-10T08:03:12.316Z,13.40
2022-11-10T08:05:38.975Z,13.60
2022-11-10T08:08:06.540Z,13.10
2022-11-10T08:10:34.679Z,12.70
2022-11-10T08:13:02.507Z,12.60
2022-11-10T08:15:30.935Z,12.50
2022-11-10T08:18:02.270Z,12.60
2022-11-10T08:20:28.698Z,12.50
2022-11-10T08:22:59.930Z,12.50
2022-11-10T08:25:33.204Z,12.40
2022-11-10T08:28:03.954Z,12.50
2022-11-10T08:30:30.784Z,12.60
2022-11-10T08:33:00.186Z,12.50
2022-11-10T08:35:28.433Z,12.70
2022-11-10T08:37:55.139Z,12.70
2022-11-10T08:40:23.991Z,12.80
2022-11-10T08:42:58.661Z,12.70
2022-11-10T08:45:25.469Z,12.80
2022-11-10T08:48:02.304Z,12.80
2022-11-10T08:50:29.675Z,12.90
2022-11-10T08:52:56.381Z,12.80
2022-11-10T08:55:23.543Z,12.90
2022-11-10T08:57:49.981Z,12.90
2022-11-10T09:00:17.128Z,13.20
2022-11-10T09:02:43.618Z,13.30
2022-11-10T09:05:10.265Z,13.40
2022-11-10T09:07:48.013Z,13.40
2022-11-10T09:10:14.856Z,13.60
2022-11-10T09:12:41.992Z,13.40
2022-11-10T09:15:10.704Z,13.30
2022-11-10T09:17:38.243Z,13.40
2022-11-10T09:20:06.255Z,13.30
2022-11-10T09:22:35.314Z,13.50
2022-11-10T09:25:01.980Z,13.40
2022-11-10T09:27:28.395Z,13.20
2022-11-10T09:29:54.836Z,13.40
2022-11-10T09:32:21.255Z,13.30
2022-11-10T09:34:51.884Z,13.40
2022-11-10T09:37:19.526Z,13.50
2022-11-10T09:39:46.164Z,13.50
2022-11-10T09:42:40.374Z,13.40
2022-11-10T09:45:17.703Z,13.20
2022-11-10T09:47:58.390Z,13.30
2022-11-10T09:50:34.597Z,13.70
2022-11-10T09:53:02.531Z,13.90
2022-11-10T09:55:44.567Z,13.80
2022-11-10T09:58:12.930Z,13.70
2022-11-10T10:00:42.587Z,13.70
2022-11-10T10:03:17.089Z,13.90
2022-11-10T10:05:57.518Z,13.80
2022-11-10T10:08:35.519Z,14.10
2022-11-10T10:11:26.709Z,14.30
2022-11-10T10:14:12.128Z,14.40
2022-11-10T10:16:44.544Z,14.50
2022-11-10T10:19:26.163Z,14.20
2022-11-10T10:22:13.320Z,14.40
2022-11-10T10:24:39.953Z,14.60
2022-11-10T10:27:12.215Z,14.50
2022-11-10T10:29:47.231Z,14.50
2022-11-10T10:32:14.732Z,14.70
2022-11-10T10:34:43.125Z,14.70
2022-11-10T10:37:22.407Z,15.10
2022-11-10T10:39:50.948Z,15.50
2022-11-10T10:42:35.876Z,15.30
2022-11-10T10:45:24.390Z,14.90
2022-11-10T10:47:56.057Z,14.60
2022-11-10T10:50:32.396Z,14.60
2022-11-10T10:53:13.631Z,14.50
2022-11-10T10:55:46.941Z,14.70
2022-11-10T10:58:31.618Z,15.00
2022-11-10T11:01:19.531Z,15.20
2022-11-10T11:03:48.637Z,15.80
2022-11-10T11:06:15.001Z,15.20
2022-11-10T11:08:58.177Z,15.20
2022-11-10T11:11:28.611Z,15.00
2022-11-10T11:14:13.611Z,16.80
2022-11-10T11:16:51.883Z,16.00
2022-11-10T11:19:21.022Z,15.60
2022-11-10T11:21:55.188Z,15.70
2022-11-10T11:24:46.920Z,16.20
2022-11-10T11:27:39.406Z,17.20
2022-11-10T11:30:10.524Z,17.60
2022-11-10T11:33:12.146Z,16.30
2022-11-10T11:36:00.574Z,16.10
2022-11-10T11:38:51.816Z,15.50
2022-11-10T11:41:34.113Z,15.50
2022-11-10T11:44:23.321Z,15.50
2022-11-10T11:46:58.517Z,16.30
2022-11-10T11:49:55.743Z,16.40
2022-11-10T11:52:36.088Z,16.70
2022-11-10T11:55:22.423Z,16.60
2022-11-10T11:58:16.718Z,15.90
2022-11-10T12:01:04.574Z,15.80
2022-11-10T12:04:22.608Z,15.60
2022-11-10T12:07:07.939Z,15.50
2022-11-10T12:09:44.550Z,15.40
2022-11-10T12:12:21.186Z,15.60
2022-11-10T12:15:02.496Z,15.50
2022-11-10T12:18:13.316Z,15.90
2022-11-10T12:20:45.847Z,16.20
2022-11-10T12:23:41.605Z,15.90
2022-11-10T12:26:27.477Z,16.00
2022-11-10T12:29:21.783Z,16.30
2022-11-10T12:31:52.418Z,16.80
2022-11-10T12:34:27.655Z,17.40
2022-11-10T12:36:54.194Z,17.20
2022-11-10T12:39:24.420Z,16.80
2022-11-10T12:42:00.319Z,16.30
2022-11-10T12:44:32.285Z,16.00
2022-11-10T12:47:02.691Z,16.50
2022-11-10T12:49:34.942Z,16.40
2022-11-10T12:52:18.054Z,16.60
2022-11-10T12:54:46.223Z,16.60
2022-11-10T12:57:22.990Z,17.20
2022-11-10T13:00:02.530Z,17.50
2022-11-10T13:02:34.690Z,16.70
2022-11-10T13:05:25.409Z,16.10
2022-11-10T13:08:06.949Z,15.90
2022-11-10T13:10:33.500Z,16.10
2022-11-10T13:13:07.422Z,15.60
2022-11-10T13:15:39.971Z,15.70
2022-11-10T13:18:09.002Z,15.50
2022-11-10T13:20:41.982Z,15.90
2022-11-10T13:23:31.324Z,16.10
2022-11-10T13:26:06.876Z,16.30
2022-11-10T13:28:48.485Z,16.50
2022-11-10T13:31:27.135Z,16.20
2022-11-10T13:34:02.662Z,16.10
2022-11-10T13:36:49.314Z,16.00
2022-11-10T13:39:26.756Z,16.10
2022-11-10T13:42:08.437Z,16.00
2022-11-10T13:44:37.759Z,16.00
2022-11-10T13:47:34.838Z,16.10
2022-11-10T13:50:10.618Z,16.20
2022-11-10T13:53:01.421Z,16.20
2022-11-10T13:55:57.331Z,16.00
2022-11-10T13:58:33.198Z,15.70
2022-11-10T14:01:17.633Z,15.70
2022-11-10T14:03:50.227Z,15.60
2022-11-10T14:06:21.759Z,15.50
2022-11-10T14:09:05.643Z,15.40
2022-11-10T14:11:49.697Z,15.50
2022-11-10T14:14:33.482Z,15.30
2022-11-10T14:17:00.804Z,15.40
2022-11-10T14:19:39.809Z,15.10
2022-11-10T14:22:21.654Z,15.00
2022-11-10T14:25:02.440Z,14.90
2022-11-10T14:27:32.063Z,14.90
2022-11-10T14:30:08.389Z,15.10
2022-11-10T14:32:35.546Z,15.10
2022-11-10T14:35:02.297Z,15.10
2022-11-10T14:37:30.080Z,15.00
2022-11-10T14:39:58.953Z,15.00
2022-11-10T14:42:28.711Z,14.90
2022-11-10T14:45:21.145Z,14.80
2022-11-10T14:47:59.181Z,14.80
2022-11-10T14:50:27.828Z,15.00
2022-11-10T14:52:57.969Z,14.90
2022-11-10T14:55:31.394Z,14.80
2022-11-10T14:58:10.352Z,14.80
2022-11-10T15:00:39.135Z,14.70
2022-11-10T15:03:07.516Z,14.70
2022-11-10T15:05:34.119Z,14.60
2022-11-10T15:08:01.633Z,14.40
2022-11-10T15:10:49.106Z,14.30
2022-11-10T15:13:27.743Z,14.10
2022-11-10T15:16:28.341Z,14.00
2022-11-10T15:18:57.689Z,14.10
2022-11-10T15:21:31.080Z,13.90
2022-11-10T15:24:01.012Z,14.10
2022-11-10T15:26:29.312Z,14.00
2022-11-10T15:28:55.766Z,13.90
2022-11-10T15:31:28.741Z,13.80
2022-11-10T15:34:00.242Z,13.70
2022-11-10T15:36:32.693Z,13.60
2022-11-10T15:39:14.275Z,13.50
2022-11-10T15:41:46.505Z,13.30
2022-11-10T15:44:13.691Z,13.10
2022-11-10T15:46:40.191Z,13.00
2022-11-10T15:49:35.278Z,12.90
2022-11-10T15:52:17.315Z,12.80
2022-11-10T15:54:44.603Z,12.60
2022-11-10T15:57:16.913Z,12.60
2022-11-10T15:59:43.711Z,12.40
2022-11-10T16:02:20.692Z,12.50
2022-11-10T16:04:47.492Z,12.50
2022-11-10T16:07:14.035Z,12.50
2022-11-10T16:09:40.630Z,12.30
2022-11-10T16:12:14.847Z,12.30
2022-11-10T16:14:47.342Z,12.30
2022-11-10T16:17:14.353Z,12.30
2022-11-10T16:19:40.887Z,12.10
2022-11-10T16:22:10.675Z,12.00
2022-11-10T16:24:37.789Z,12.00
2022-11-10T16:27:06.376Z,11.90
2022-11-10T16:29:34.865Z,11.70
2022-11-10T16:32:01.651Z,11.80
2022-11-10T16:34:28.191Z,11.70
2022-11-10T16:36:55.201Z,11.60
2022-11-10T16:39:21.655Z,11.50
2022-11-10T16:41:48.295Z,11.50
2022-11-10T16:44:15.895Z,11.60
2022-11-10T16:46:43.721Z,11.50
2022-11-10T16:49:32.995Z,11.60
2022-11-10T16:52:04.246Z,11.60
2022-11-10T16:54:30.679Z,11.70
2022-11-10T16:56:57.142Z,11.70
2022-11-10T16:59:23.672Z,11.60
2022-11-10T17:01:50.398Z,11.50
2022-11-10T17:04:17.052Z,11.60
2022-11-10T17:06:43.572Z,11.50
2022-11-10T17:09:19.323Z,11.60
2022-11-10T17:11:45.859Z,11.40
2022-11-10T17:14:13.457Z,11.60
2022-11-10T17:16:43.831Z,11.50
2022-11-10T17:19:18.300Z,11.60
2022-11-10T17:21:45.448Z,11.80
2022-11-10T17:24:14.527Z,11.80
2022-11-10T17:26:42.337Z,12.00
2022-11-10T17:29:17.797Z,12.00
2022-11-10T17:31:45.084Z,12.10
2022-11-10T17:34:13.043Z,12.20
2022-11-10T17:36:40.380Z,12.30
2022-11-10T17:39:07.203Z,12.40
2022-11-10T17:41:33.998Z,12.30
2022-11-10T17:44:00.678Z,12.30
2022-11-10T17:46:27.175Z,12.40
2022-11-10T17:49:00.069Z,12.40
2022-11-10T17:51:32.832Z,12.40
2022-11-10T17:54:04.115Z,12.60
2022-11-10T17:56:31.775Z,12.60
2022-11-10T17:58:58.370Z,12.60
2022-11-10T18:01:24.928Z,12.60
2022-11-10T18:03:51.438Z,12.60
2022-11-10T18:06:20.387Z,12.60
2022-11-10T18:08:47.065Z,12.60
2022-11-10T18:11:16.371Z,12.60
2022-11-10T18:13:43.055Z,12.60
2022-11-10T18:16:11.732Z,12.70
2022-11-10T18:18:40.230Z,12.70
2022-11-10T18:21:07.489Z,12.70
2022-11-10T18:23:33.918Z,12.70
2022-11-10T18:26:06.126Z,12.70
2022-11-10T18:28:33.835Z,12.70
2022-11-10T18:31:11.428Z,12.70
2022-11-10T18:33:38.057Z,12.80
2022-11-10T18:36:04.817Z,12.90
2022-11-10T18:38:31.330Z,12.90
2022-11-10T18:41:21.967Z,12.80
2022-11-10T18:43:48.501Z,12.90
2022-11-10T18:46:16.144Z,13.00
2022-11-10T18:48:44.931Z,12.90
2022-11-10T18:51:11.396Z,12.90
2022-11-10T18:53:40.704Z,12.80
2022-11-10T18:56:07.333Z,12.90
2022-11-10T18:58:34.013Z,12.90
2022-11-10T19:01:10.605Z,12.90
2022-11-10T19:03:37.701Z,12.90
2022-11-10T19:06:05.058Z,12.90
2022-11-10T19:08:31.675Z,13.00
2022-11-10T19:10:58.137Z,13.00
2022-11-10T19:13:25.172Z,12.90
2022-11-10T19:15:51.982Z,12.90
2022-11-10T19:18:18.579Z,13.00
2022-11-10T19:20:45.034Z,13.10
2022-11-10T19:23:11.714Z,13.00
2022-11-10T19:25:38.137Z,13.00
2022-11-10T19:28:04.734Z,12.90
2022-11-10T19:30:31.512Z,13.00
2022-11-10T19:32:58.027Z,13.00
2022-11-10T19:35:24.552Z,13.00
2022-11-10T19:37:54.015Z,13.00
2022-11-10T19:40:21.045Z,13.00
2022-11-10T19:42:50.222Z,12.90
2022-11-10T19:45:16.815Z,12.90
2022-11-10T19:47:43.251Z,13.00
2022-11-10T19:50:09.887Z,13.00
2022-11-10T19:52:36.411Z,13.00
2022-11-10T19:55:03.072Z,13.00
2022-11-10T19:57:29.488Z,13.00
2022-11-10T19:59:56.054Z,13.00
2022-11-10T20:02:22.553Z,13.00
2022-11-10T20:05:07.681Z,13.00
2022-11-10T20:07:52.444Z,13.00
2022-11-10T20:10:18.844Z,12.90
2022-11-10T20:12:45.364Z,13.00
2022-11-10T20:15:11.811Z,12.90
2022-11-10T20:17:38.220Z,12.90
2022-11-10T20:20:05.316Z,13.00
2022-11-10T20:22:31.733Z,13.00
2022-11-10T20:25:01.220Z,13.00
2022-11-10T20:27:27.747Z,12.90
2022-11-10T20:29:54.228Z,13.00
2022-11-10T20:32:20.692Z,12.90
2022-11-10T20:34:47.229Z,13.00
2022-11-10T20:37:13.730Z,13.00
2022-11-10T20:39:40.198Z,13.00
2022-11-10T20:42:06.631Z,13.00
2022-11-10T20:44:33.083Z,12.90
2022-11-10T20:46:59.563Z,13.00
2022-11-10T20:49:26.042Z,12.90
2022-11-10T20:51:52.742Z,12.90
2022-11-10T20:54:19.248Z,12.90
2022-11-10T20:56:45.764Z,12.90
2022-11-10T20:59:12.267Z,12.80
2022-11-10T21:01:39.076Z,12.80
2022-11-10T21:04:06.221Z,12.80
2022-11-10T21:06:32.842Z,13.00
2022-11-10T21:08:59.454Z,12.70
2022-11-10T21:11:44.676Z,12.80
2022-11-10T21:14:11.298Z,12.70
2022-11-10T21:16:37.934Z,12.60
2022-11-10T21:19:06.566Z,12.40
2022-11-10T21:21:36.316Z,12.30
2022-11-10T21:24:04.179Z,12.40
2022-11-10T21:26:31.532Z,12.30
2022-11-10T21:28:58.487Z,12.30
2022-11-10T21:31:25.058Z,12.10
2022-11-10T21:33:55.107Z,12.10
2022-11-10T21:36:21.853Z,12.00
2022-11-10T21:38:48.881Z,12.10
2022-11-10T21:41:16.290Z,12.00
2022-11-10T21:43:42.852Z,11.90
2022-11-10T21:46:09.343Z,11.90
2022-11-10T21:48:36.376Z,11.80
2022-11-10T21:51:04.559Z,11.60
2022-11-10T21:53:31.499Z,11.70
2022-11-10T21:56:03.657Z,11.60
2022-11-10T21:58:30.459Z,11.50
2022-11-10T22:01:02.103Z,11.40
2022-11-10T22:03:32.523Z,11.40
2022-11-10T22:06:04.356Z,11.30
2022-11-10T22:08:31.430Z,11.40
2022-11-10T22:11:16.389Z,11.40
2022-11-10T22:14:01.173Z,11.40
2022-11-10T22:16:51.041Z,11.30
2022-11-10T22:19:17.534Z,11.30
2022-11-10T22:21:46.580Z,11.20
2022-11-10T22:24:26.665Z,11.20
2022-11-10T22:26:57.851Z,11.30
2022-11-10T22:29:31.187Z,11.10
2022-11-10T22:31:59.282Z,11.10
2022-11-10T22:34:25.744Z,11.20
2022-11-10T22:36:53.701Z,11.20
2022-11-10T22:39:20.251Z,11.10
2022-11-10T22:42:05.456Z,10.90
2022-11-10T22:44:31.900Z,11.00
2022-11-10T22:46:58.372Z,10.90
2022-11-10T22:49:25.005Z,11.00
2022-11-10T22:51:55.205Z,10.80
2022-11-10T22:54:24.466Z,10.80
2022-11-10T22:56:51.605Z,10.70
2022-11-10T22:59:18.775Z,10.70
2022-11-10T23:01:45.475Z,10.50
2022-11-10T23:04:12.233Z,10.50
2022-11-10T23:06:38.868Z,10.50
2022-11-10T23:09:05.729Z,10.50
2022-11-10T23:11:33.057Z,10.40
2022-11-10T23:13:59.532Z,10.30
2022-11-10T23:16:28.825Z,10.30
2022-11-10T23:18:56.883Z,10.20
2022-11-10T23:21:25.728Z,10.10
2022-11-10T23:23:53.553Z,10.00
2022-11-10T23:26:25.328Z,10.00
2022-11-10T23:28:53.109Z,10.00
2022-11-10T23:31:24.789Z,10.00
2022-11-10T23:33:53.144Z,9.90
2022-11-10T23:36:20.694Z,9.90
2022-11-10T23:38:48.788Z,9.90
2022-11-10T23:41:18.168Z,9.80
2022-11-10T23:43:44.973Z,9.90
2022-11-10T23:46:12.436Z,9.70
2022-11-10T23:48:39.694Z,9.70
2022-11-10T23:51:07.085Z,9.70
2022-11-10T23:53:34.003Z,9.50
2022-11-10T23:56:06.296Z,9.60
2022-11-10T23:58:33.078Z,9.50
